sensor_id;sensor_type;location;lat;lon;timestamp;P1;durP1;ratioP1;P2;durP2;ratioP2
22610;SDS011;11472;45.494;12.142;2023-04-25T00:00:01;6.40;;;3.50;;
22610;SDS011;11472;45.494;12.142;2023-04-25T00:01:02;6.40;;;3.50;;
22610;SDS011;11472;45.494;12.142;2023-04-25T00:02:00;6.40;;;3.50;;
22610;SDS011;11472;45.494;12.142;2023-04-25T00:03:01;6.40;;;3.50;;
22610;SDS011;11472;45.494;12.142;2023-04-25T00:04:00;6.40;;;3.50;;
22610;SDS011;11472;45.494;12.142;2023-04-25T00:05:02;4.80;;;3.50;;
22610;SDS011;11472;45.494;12.142;2023-04-25T00:06:03;4.80;;;3.50;;
22610;SDS011;11472;45.494;12.142;2023-04-25T00:07:01;4.80;;;3.50;;
22610;SDS011;11472;45.494;12.142;2023-04-25T00:08:00;4.80;;;3.50;;
22610;SDS011;11472;45.494;12.142;2023-04-25T00:09:00;4.80;;;3.50;;
22610;SDS011;11472;45.494;12.142;2023-04-25T00:10:00;4.80;;;3.50;;
22610;SDS011;11472;45.494;12.142;2023-04-25T00:11:00;4.80;;;3.50;;
22610;SDS011;11472;45.494;12.142;2023-04-25T00:12:01;4.80;;;3.50;;
22610;SDS011;11472;45.494;12.142;2023-04-25T00:13:02;4.80;;;3.50;;
22610;SDS011;11472;45.494;12.142;2023-04-25T00:14:02;4.80;;;3.50;;
22610;SDS011;11472;45.494;12.142;2023-04-25T00:15:00;4.80;;;3.50;;
22610;SDS011;11472;45.494;12.142;2023-04-25T00:16:02;4.80;;;3.50;;
22610;SDS011;11472;45.494;12.142;2023-04-25T00:17:00;4.80;;;3.50;;
22610;SDS011;11472;45.494;12.142;2023-04-25T00:18:00;4.80;;;3.50;;
22610;SDS011;11472;45.494;12.142;2023-04-25T00:19:01;4.80;;;3.50;;
22610;SDS011;11472;45.494;12.142;2023-04-25T00:20:01;6.80;;;3.40;;
22610;SDS011;11472;45.494;12.142;2023-04-25T00:21:00;6.80;;;3.40;;
22610;SDS011;11472;45.494;12.142;2023-04-25T00:22:00;6.80;;;3.40;;
22610;SDS011;11472;45.494;12.142;2023-04-25T00:23:00;6.80;;;3.40;;
22610;SDS011;11472;45.494;12.142;2023-04-25T00:24:00;6.80;;;3.40;;
22610;SDS011;11472;45.494;12.142;2023-04-25T00:25:00;6.80;;;3.40;;
22610;SDS011;11472;45.494;12.142;2023-04-25T00:26:00;6.80;;;3.40;;
22610;SDS011;11472;45.494;12.142;2023-04-25T00:27:00;6.80;;;3.40;;
22610;SDS011;11472;45.494;12.142;2023-04-25T00:28:00;6.80;;;3.40;;
22610;SDS011;11472;45.494;12.142;2023-04-25T00:29:00;6.80;;;3.40;;
22610;SDS011;11472;45.494;12.142;2023-04-25T00:30:00;6.80;;;3.40;;
22610;SDS011;11472;45.494;12.142;2023-04-25T00:31:00;6.80;;;3.40;;
22610;SDS011;11472;45.494;12.142;2023-04-25T00:32:01;6.80;;;3.40;;
22610;SDS011;11472;45.494;12.142;2023-04-25T00:33:00;6.80;;;3.40;;
22610;SDS011;11472;45.494;12.142;2023-04-25T00:34:01;6.80;;;3.40;;
22610;SDS011;11472;45.494;12.142;2023-04-25T00:35:01;5.10;;;3.30;;
22610;SDS011;11472;45.494;12.142;2023-04-25T00:36:01;5.10;;;3.30;;
22610;SDS011;11472;45.494;12.142;2023-04-25T00:37:02;5.10;;;3.30;;
22610;SDS011;11472;45.494;12.142;2023-04-25T00:38:00;5.10;;;3.30;;
22610;SDS011;11472;45.494;12.142;2023-04-25T00:39:00;5.10;;;3.30;;
22610;SDS011;11472;45.494;12.142;2023-04-25T00:40:00;5.10;;;3.30;;
22610;SDS011;11472;45.494;12.142;2023-04-25T00:41:00;5.10;;;3.30;;
22610;SDS011;11472;45.494;12.142;2023-04-25T00:42:02;5.10;;;3.30;;
22610;SDS011;11472;45.494;12.142;2023-04-25T00:43:00;5.10;;;3.30;;
22610;SDS011;11472;45.494;12.142;2023-04-25T00:44:01;5.10;;;3.30;;
22610;SDS011;11472;45.494;12.142;2023-04-25T00:45:00;5.10;;;3.30;;
22610;SDS011;11472;45.494;12.142;2023-04-25T00:46:01;5.10;;;3.30;;
22610;SDS011;11472;45.494;12.142;2023-04-25T00:47:01;5.10;;;3.30;;
22610;SDS011;11472;45.494;12.142;2023-04-25T00:48:00;5.10;;;3.30;;
22610;SDS011;11472;45.494;12.142;2023-04-25T00:49:00;5.10;;;3.30;;
22610;SDS011;11472;45.494;12.142;2023-04-25T00:50:00;5.00;;;3.40;;
22610;SDS011;11472;45.494;12.142;2023-04-25T00:51:00;5.00;;;3.40;;
22610;SDS011;11472;45.494;12.142;2023-04-25T00:52:00;5.00;;;3.40;;
22610;SDS011;11472;45.494;12.142;2023-04-25T00:53:00;5.00;;;3.40;;
22610;SDS011;11472;45.494;12.142;2023-04-25T00:54:01;5.00;;;3.40;;
22610;SDS011;11472;45.494;12.142;2023-04-25T00:55:00;5.00;;;3.40;;
22610;SDS011;11472;45.494;12.142;2023-04-25T00:56:01;5.00;;;3.40;;
22610;SDS011;11472;45.494;12.142;2023-04-25T00:57:01;5.00;;;3.40;;
22610;SDS011;11472;45.494;12.142;2023-04-25T00:58:00;5.00;;;3.40;;
22610;SDS011;11472;45.494;12.142;2023-04-25T00:59:00;5.00;;;3.40;;
22610;SDS011;11472;45.494;12.142;2023-04-25T01:00:00;5.00;;;3.40;;
22610;SDS011;11472;45.494;12.142;2023-04-25T01:01:00;5.00;;;3.40;;
22610;SDS011;11472;45.494;12.142;2023-04-25T01:02:00;5.00;;;3.40;;
22610;SDS011;11472;45.494;12.142;2023-04-25T01:03:03;5.00;;;3.40;;
22610;SDS011;11472;45.494;12.142;2023-04-25T01:04:01;5.00;;;3.40;;
22610;SDS011;11472;45.494;12.142;2023-04-25T01:05:01;5.70;;;3.30;;
22610;SDS011;11472;45.494;12.142;2023-04-25T01:06:01;5.70;;;3.30;;
22610;SDS011;11472;45.494;12.142;2023-04-25T01:07:02;5.70;;;3.30;;
22610;SDS011;11472;45.494;12.142;2023-04-25T01:08:00;5.70;;;3.30;;
22610;SDS011;11472;45.494;12.142;2023-04-25T01:09:00;5.70;;;3.30;;
22610;SDS011;11472;45.494;12.142;2023-04-25T01:10:01;5.70;;;3.30;;
22610;SDS011;11472;45.494;12.142;2023-04-25T01:11:00;5.70;;;3.30;;
22610;SDS011;11472;45.494;12.142;2023-04-25T01:12:01;5.70;;;3.30;;
22610;SDS011;11472;45.494;12.142;2023-04-25T01:13:01;5.70;;;3.30;;
22610;SDS011;11472;45.494;12.142;2023-04-25T01:14:01;5.70;;;3.30;;
22610;SDS011;11472;45.494;12.142;2023-04-25T01:15:00;5.70;;;3.30;;
22610;SDS011;11472;45.494;12.142;2023-04-25T01:16:01;5.70;;;3.30;;
22610;SDS011;11472;45.494;12.142;2023-04-25T01:17:00;5.70;;;3.30;;
22610;SDS011;11472;45.494;12.142;2023-04-25T01:18:02;5.70;;;3.30;;
22610;SDS011;11472;45.494;12.142;2023-04-25T01:19:00;5.70;;;3.30;;
22610;SDS011;11472;45.494;12.142;2023-04-25T01:20:03;4.60;;;3.60;;
22610;SDS011;11472;45.494;12.142;2023-04-25T01:21:10;4.60;;;3.60;;
22610;SDS011;11472;45.494;12.142;2023-04-25T01:22:00;4.60;;;3.60;;
22610;SDS011;11472;45.494;12.142;2023-04-25T01:23:02;4.60;;;3.60;;
22610;SDS011;11472;45.494;12.142;2023-04-25T01:24:00;4.60;;;3.60;;
22610;SDS011;11472;45.494;12.142;2023-04-25T01:25:00;4.60;;;3.60;;
22610;SDS011;11472;45.494;12.142;2023-04-25T01:26:01;4.60;;;3.60;;
22610;SDS011;11472;45.494;12.142;2023-04-25T01:27:01;4.60;;;3.60;;
22610;SDS011;11472;45.494;12.142;2023-04-25T01:28:00;4.60;;;3.60;;
22610;SDS011;11472;45.494;12.142;2023-04-25T01:29:00;4.60;;;3.60;;
22610;SDS011;11472;45.494;12.142;2023-04-25T01:30:00;4.60;;;3.60;;
22610;SDS011;11472;45.494;12.142;2023-04-25T01:31:01;4.60;;;3.60;;
22610;SDS011;11472;45.494;12.142;2023-04-25T01:32:01;4.60;;;3.60;;
22610;SDS011;11472;45.494;12.142;2023-04-25T01:33:01;4.60;;;3.60;;
22610;SDS011;11472;45.494;12.142;2023-04-25T01:34:00;4.60;;;3.60;;
22610;SDS011;11472;45.494;12.142;2023-04-25T01:35:00;5.40;;;3.80;;
22610;SDS011;11472;45.494;12.142;2023-04-25T01:36:00;5.40;;;3.80;;
22610;SDS011;11472;45.494;12.142;2023-04-25T01:37:02;5.40;;;3.80;;
22610;SDS011;11472;45.494;12.142;2023-04-25T01:38:00;5.40;;;3.80;;
22610;SDS011;11472;45.494;12.142;2023-04-25T01:39:01;5.40;;;3.80;;
22610;SDS011;11472;45.494;12.142;2023-04-25T01:40:00;5.40;;;3.80;;
22610;SDS011;11472;45.494;12.142;2023-04-25T01:41:00;5.40;;;3.80;;
22610;SDS011;11472;45.494;12.142;2023-04-25T01:42:01;5.40;;;3.80;;
22610;SDS011;11472;45.494;12.142;2023-04-25T01:43:00;5.40;;;3.80;;
22610;SDS011;11472;45.494;12.142;2023-04-25T01:44:01;5.40;;;3.80;;
22610;SDS011;11472;45.494;12.142;2023-04-25T01:45:01;5.40;;;3.80;;
22610;SDS011;11472;45.494;12.142;2023-04-25T01:46:00;5.40;;;3.80;;
22610;SDS011;11472;45.494;12.142;2023-04-25T01:47:00;5.40;;;3.80;;
22610;SDS011;11472;45.494;12.142;2023-04-25T01:48:01;5.40;;;3.80;;
22610;SDS011;11472;45.494;12.142;2023-04-25T01:49:01;5.40;;;3.80;;
22610;SDS011;11472;45.494;12.142;2023-04-25T01:50:01;8.30;;;4.00;;
22610;SDS011;11472;45.494;12.142;2023-04-25T01:51:00;8.30;;;4.00;;
22610;SDS011;11472;45.494;12.142;2023-04-25T01:52:00;8.30;;;4.00;;
22610;SDS011;11472;45.494;12.142;2023-04-25T01:53:01;8.30;;;4.00;;
22610;SDS011;11472;45.494;12.142;2023-04-25T01:54:01;8.30;;;4.00;;
22610;SDS011;11472;45.494;12.142;2023-04-25T01:55:01;8.30;;;4.00;;
22610;SDS011;11472;45.494;12.142;2023-04-25T01:56:00;8.30;;;4.00;;
22610;SDS011;11472;45.494;12.142;2023-04-25T01:57:01;8.30;;;4.00;;
22610;SDS011;11472;45.494;12.142;2023-04-25T01:58:02;8.30;;;4.00;;
22610;SDS011;11472;45.494;12.142;2023-04-25T01:59:00;8.30;;;4.00;;
22610;SDS011;11472;45.494;12.142;2023-04-25T02:00:04;8.30;;;4.00;;
22610;SDS011;11472;45.494;12.142;2023-04-25T02:01:00;8.30;;;4.00;;
22610;SDS011;11472;45.494;12.142;2023-04-25T02:02:03;8.30;;;4.00;;
22610;SDS011;11472;45.494;12.142;2023-04-25T02:03:01;8.30;;;4.00;;
22610;SDS011;11472;45.494;12.142;2023-04-25T02:04:01;8.30;;;4.00;;
22610;SDS011;11472;45.494;12.142;2023-04-25T02:05:00;8.70;;;5.60;;
22610;SDS011;11472;45.494;12.142;2023-04-25T02:06:00;8.70;;;5.60;;
22610;SDS011;11472;45.494;12.142;2023-04-25T02:07:00;8.70;;;5.60;;
22610;SDS011;11472;45.494;12.142;2023-04-25T02:08:00;8.70;;;5.60;;
22610;SDS011;11472;45.494;12.142;2023-04-25T02:09:00;8.70;;;5.60;;
22610;SDS011;11472;45.494;12.142;2023-04-25T02:10:00;8.70;;;5.60;;
22610;SDS011;11472;45.494;12.142;2023-04-25T02:11:00;8.70;;;5.60;;
22610;SDS011;11472;45.494;12.142;2023-04-25T02:12:01;8.70;;;5.60;;
22610;SDS011;11472;45.494;12.142;2023-04-25T02:13:01;8.70;;;5.60;;
22610;SDS011;11472;45.494;12.142;2023-04-25T02:14:00;8.70;;;5.60;;
22610;SDS011;11472;45.494;12.142;2023-04-25T02:15:00;8.70;;;5.60;;
22610;SDS011;11472;45.494;12.142;2023-04-25T02:16:01;8.70;;;5.60;;
22610;SDS011;11472;45.494;12.142;2023-04-25T02:17:00;8.70;;;5.60;;
22610;SDS011;11472;45.494;12.142;2023-04-25T02:18:00;8.70;;;5.60;;
22610;SDS011;11472;45.494;12.142;2023-04-25T02:19:00;8.70;;;5.60;;
22610;SDS011;11472;45.494;12.142;2023-04-25T02:20:00;6.50;;;5.60;;
22610;SDS011;11472;45.494;12.142;2023-04-25T02:21:01;6.50;;;5.60;;
22610;SDS011;11472;45.494;12.142;2023-04-25T02:22:01;6.50;;;5.60;;
22610;SDS011;11472;45.494;12.142;2023-04-25T02:23:00;6.50;;;5.60;;
22610;SDS011;11472;45.494;12.142;2023-04-25T02:24:00;6.50;;;5.60;;
22610;SDS011;11472;45.494;12.142;2023-04-25T02:25:01;6.50;;;5.60;;
22610;SDS011;11472;45.494;12.142;2023-04-25T02:26:00;6.50;;;5.60;;
22610;SDS011;11472;45.494;12.142;2023-04-25T02:27:00;6.50;;;5.60;;
22610;SDS011;11472;45.494;12.142;2023-04-25T02:28:00;6.50;;;5.60;;
22610;SDS011;11472;45.494;12.142;2023-04-25T02:29:01;6.50;;;5.60;;
22610;SDS011;11472;45.494;12.142;2023-04-25T02:30:00;6.50;;;5.60;;
22610;SDS011;11472;45.494;12.142;2023-04-25T02:31:00;6.50;;;5.60;;
22610;SDS011;11472;45.494;12.142;2023-04-25T02:32:00;6.50;;;5.60;;
22610;SDS011;11472;45.494;12.142;2023-04-25T02:33:00;6.50;;;5.60;;
22610;SDS011;11472;45.494;12.142;2023-04-25T02:34:00;6.50;;;5.60;;
22610;SDS011;11472;45.494;12.142;2023-04-25T02:35:03;6.50;;;4.80;;
22610;SDS011;11472;45.494;12.142;2023-04-25T02:36:00;6.50;;;4.80;;
22610;SDS011;11472;45.494;12.142;2023-04-25T02:37:00;6.50;;;4.80;;
22610;SDS011;11472;45.494;12.142;2023-04-25T02:38:00;6.50;;;4.80;;
22610;SDS011;11472;45.494;12.142;2023-04-25T02:39:01;6.50;;;4.80;;
22610;SDS011;11472;45.494;12.142;2023-04-25T02:40:01;6.50;;;4.80;;
22610;SDS011;11472;45.494;12.142;2023-04-25T02:41:00;6.50;;;4.80;;
22610;SDS011;11472;45.494;12.142;2023-04-25T02:42:01;6.50;;;4.80;;
22610;SDS011;11472;45.494;12.142;2023-04-25T02:43:00;6.50;;;4.80;;
22610;SDS011;11472;45.494;12.142;2023-04-25T02:44:00;6.50;;;4.80;;
22610;SDS011;11472;45.494;12.142;2023-04-25T02:45:01;6.50;;;4.80;;
22610;SDS011;11472;45.494;12.142;2023-04-25T02:46:00;6.50;;;4.80;;
22610;SDS011;11472;45.494;12.142;2023-04-25T02:47:00;6.50;;;4.80;;
22610;SDS011;11472;45.494;12.142;2023-04-25T02:48:01;6.50;;;4.80;;
22610;SDS011;11472;45.494;12.142;2023-04-25T02:49:00;6.50;;;4.80;;
22610;SDS011;11472;45.494;12.142;2023-04-25T02:50:00;5.80;;;4.20;;
22610;SDS011;11472;45.494;12.142;2023-04-25T02:51:00;5.80;;;4.20;;
22610;SDS011;11472;45.494;12.142;2023-04-25T02:52:00;5.80;;;4.20;;
22610;SDS011;11472;45.494;12.142;2023-04-25T02:53:00;5.80;;;4.20;;
22610;SDS011;11472;45.494;12.142;2023-04-25T02:54:00;5.80;;;4.20;;
22610;SDS011;11472;45.494;12.142;2023-04-25T02:55:00;5.80;;;4.20;;
22610;SDS011;11472;45.494;12.142;2023-04-25T02:56:01;5.80;;;4.20;;
22610;SDS011;11472;45.494;12.142;2023-04-25T02:57:02;5.80;;;4.20;;
22610;SDS011;11472;45.494;12.142;2023-04-25T02:58:00;5.80;;;4.20;;
22610;SDS011;11472;45.494;12.142;2023-04-25T02:59:00;5.80;;;4.20;;
22610;SDS011;11472;45.494;12.142;2023-04-25T03:00:00;5.80;;;4.20;;
22610;SDS011;11472;45.494;12.142;2023-04-25T03:01:00;5.80;;;4.20;;
22610;SDS011;11472;45.494;12.142;2023-04-25T03:02:01;5.80;;;4.20;;
22610;SDS011;11472;45.494;12.142;2023-04-25T03:03:00;5.80;;;4.20;;
22610;SDS011;11472;45.494;12.142;2023-04-25T03:04:00;5.80;;;4.20;;
22610;SDS011;11472;45.494;12.142;2023-04-25T03:05:00;7.90;;;5.90;;
22610;SDS011;11472;45.494;12.142;2023-04-25T03:06:00;7.90;;;5.90;;
22610;SDS011;11472;45.494;12.142;2023-04-25T03:07:01;7.90;;;5.90;;
22610;SDS011;11472;45.494;12.142;2023-04-25T03:08:00;7.90;;;5.90;;
22610;SDS011;11472;45.494;12.142;2023-04-25T03:09:00;7.90;;;5.90;;
22610;SDS011;11472;45.494;12.142;2023-04-25T03:10:00;7.90;;;5.90;;
22610;SDS011;11472;45.494;12.142;2023-04-25T03:11:00;7.90;;;5.90;;
22610;SDS011;11472;45.494;12.142;2023-04-25T03:12:01;7.90;;;5.90;;
22610;SDS011;11472;45.494;12.142;2023-04-25T03:13:00;7.90;;;5.90;;
22610;SDS011;11472;45.494;12.142;2023-04-25T03:14:00;7.90;;;5.90;;
22610;SDS011;11472;45.494;12.142;2023-04-25T03:15:00;7.90;;;5.90;;
22610;SDS011;11472;45.494;12.142;2023-04-25T03:16:00;7.90;;;5.90;;
22610;SDS011;11472;45.494;12.142;2023-04-25T03:17:01;7.90;;;5.90;;
22610;SDS011;11472;45.494;12.142;2023-04-25T03:18:02;7.90;;;5.90;;
22610;SDS011;11472;45.494;12.142;2023-04-25T03:19:00;7.90;;;5.90;;
22610;SDS011;11472;45.494;12.142;2023-04-25T03:20:01;6.10;;;5.50;;
22610;SDS011;11472;45.494;12.142;2023-04-25T03:21:00;6.10;;;5.50;;
22610;SDS011;11472;45.494;12.142;2023-04-25T03:22:00;6.10;;;5.50;;
22610;SDS011;11472;45.494;12.142;2023-04-25T03:23:00;6.10;;;5.50;;
22610;SDS011;11472;45.494;12.142;2023-04-25T03:24:02;6.10;;;5.50;;
22610;SDS011;11472;45.494;12.142;2023-04-25T03:25:00;6.10;;;5.50;;
22610;SDS011;11472;45.494;12.142;2023-04-25T03:26:00;6.10;;;5.50;;
22610;SDS011;11472;45.494;12.142;2023-04-25T03:27:01;6.10;;;5.50;;
22610;SDS011;11472;45.494;12.142;2023-04-25T03:28:00;6.10;;;5.50;;
22610;SDS011;11472;45.494;12.142;2023-04-25T03:29:00;6.10;;;5.50;;
22610;SDS011;11472;45.494;12.142;2023-04-25T03:30:00;6.10;;;5.50;;
22610;SDS011;11472;45.494;12.142;2023-04-25T03:31:00;6.10;;;5.50;;
22610;SDS011;11472;45.494;12.142;2023-04-25T03:32:00;6.10;;;5.50;;
22610;SDS011;11472;45.494;12.142;2023-04-25T03:33:00;6.10;;;5.50;;
22610;SDS011;11472;45.494;12.142;2023-04-25T03:34:00;6.10;;;5.50;;
22610;SDS011;11472;45.494;12.142;2023-04-25T03:35:00;8.50;;;6.30;;
22610;SDS011;11472;45.494;12.142;2023-04-25T03:36:00;8.50;;;6.30;;
22610;SDS011;11472;45.494;12.142;2023-04-25T03:37:00;8.50;;;6.30;;
22610;SDS011;11472;45.494;12.142;2023-04-25T03:38:00;8.50;;;6.30;;
22610;SDS011;11472;45.494;12.142;2023-04-25T03:39:00;8.50;;;6.30;;
22610;SDS011;11472;45.494;12.142;2023-04-25T03:40:00;8.50;;;6.30;;
22610;SDS011;11472;45.494;12.142;2023-04-25T03:41:01;8.50;;;6.30;;
22610;SDS011;11472;45.494;12.142;2023-04-25T03:42:01;8.50;;;6.30;;
22610;SDS011;11472;45.494;12.142;2023-04-25T03:43:00;8.50;;;6.30;;
22610;SDS011;11472;45.494;12.142;2023-04-25T03:44:00;8.50;;;6.30;;
22610;SDS011;11472;45.494;12.142;2023-04-25T03:45:00;8.50;;;6.30;;
22610;SDS011;11472;45.494;12.142;2023-04-25T03:46:00;8.50;;;6.30;;
22610;SDS011;11472;45.494;12.142;2023-04-25T03:47:00;8.50;;;6.30;;
22610;SDS011;11472;45.494;12.142;2023-04-25T03:48:00;8.50;;;6.30;;
22610;SDS011;11472;45.494;12.142;2023-04-25T03:49:00;8.50;;;6.30;;
22610;SDS011;11472;45.494;12.142;2023-04-25T03:50:02;8.60;;;6.70;;
22610;SDS011;11472;45.494;12.142;2023-04-25T03:51:00;8.60;;;6.70;;
22610;SDS011;11472;45.494;12.142;2023-04-25T03:52:00;8.60;;;6.70;;
22610;SDS011;11472;45.494;12.142;2023-04-25T03:53:00;8.60;;;6.70;;
22610;SDS011;11472;45.494;12.142;2023-04-25T03:54:01;8.60;;;6.70;;
22610;SDS011;11472;45.494;12.142;2023-04-25T03:55:00;8.60;;;6.70;;
22610;SDS011;11472;45.494;12.142;2023-04-25T03:56:00;8.60;;;6.70;;
22610;SDS011;11472;45.494;12.142;2023-04-25T03:57:00;8.60;;;6.70;;
22610;SDS011;11472;45.494;12.142;2023-04-25T03:58:00;8.60;;;6.70;;
22610;SDS011;11472;45.494;12.142;2023-04-25T03:59:00;8.60;;;6.70;;
22610;SDS011;11472;45.494;12.142;2023-04-25T04:00:01;8.60;;;6.70;;
22610;SDS011;11472;45.494;12.142;2023-04-25T04:01:03;8.60;;;6.70;;
22610;SDS011;11472;45.494;12.142;2023-04-25T04:02:00;8.60;;;6.70;;
22610;SDS011;11472;45.494;12.142;2023-04-25T04:03:01;8.60;;;6.70;;
22610;SDS011;11472;45.494;12.142;2023-04-25T04:04:00;8.60;;;6.70;;
22610;SDS011;11472;45.494;12.142;2023-04-25T04:05:01;10.20;;;7.30;;
22610;SDS011;11472;45.494;12.142;2023-04-25T04:06:01;10.20;;;7.30;;
22610;SDS011;11472;45.494;12.142;2023-04-25T04:07:00;10.20;;;7.30;;
22610;SDS011;11472;45.494;12.142;2023-04-25T04:08:00;10.20;;;7.30;;
22610;SDS011;11472;45.494;12.142;2023-04-25T04:09:02;10.20;;;7.30;;
22610;SDS011;11472;45.494;12.142;2023-04-25T04:10:00;10.20;;;7.30;;
22610;SDS011;11472;45.494;12.142;2023-04-25T04:11:00;10.20;;;7.30;;
22610;SDS011;11472;45.494;12.142;2023-04-25T04:12:01;10.20;;;7.30;;
22610;SDS011;11472;45.494;12.142;2023-04-25T04:13:00;10.20;;;7.30;;
22610;SDS011;11472;45.494;12.142;2023-04-25T04:14:01;10.20;;;7.30;;
22610;SDS011;11472;45.494;12.142;2023-04-25T04:15:02;10.20;;;7.30;;
22610;SDS011;11472;45.494;12.142;2023-04-25T04:16:01;10.20;;;7.30;;
22610;SDS011;11472;45.494;12.142;2023-04-25T04:17:00;10.20;;;7.30;;
22610;SDS011;11472;45.494;12.142;2023-04-25T04:18:02;10.20;;;7.30;;
22610;SDS011;11472;45.494;12.142;2023-04-25T04:19:00;10.20;;;7.30;;
22610;SDS011;11472;45.494;12.142;2023-04-25T04:20:00;10.80;;;8.20;;
22610;SDS011;11472;45.494;12.142;2023-04-25T04:21:00;10.80;;;8.20;;
22610;SDS011;11472;45.494;12.142;2023-04-25T04:22:00;10.80;;;8.20;;
22610;SDS011;11472;45.494;12.142;2023-04-25T04:23:01;10.80;;;8.20;;
22610;SDS011;11472;45.494;12.142;2023-04-25T04:24:00;10.80;;;8.20;;
22610;SDS011;11472;45.494;12.142;2023-04-25T04:25:00;10.80;;;8.20;;
22610;SDS011;11472;45.494;12.142;2023-04-25T04:26:01;10.80;;;8.20;;
22610;SDS011;11472;45.494;12.142;2023-04-25T04:27:00;10.80;;;8.20;;
22610;SDS011;11472;45.494;12.142;2023-04-25T04:28:00;10.80;;;8.20;;
22610;SDS011;11472;45.494;12.142;2023-04-25T04:29:01;10.80;;;8.20;;
22610;SDS011;11472;45.494;12.142;2023-04-25T04:30:01;10.80;;;8.20;;
22610;SDS011;11472;45.494;12.142;2023-04-25T04:31:01;10.80;;;8.20;;
22610;SDS011;11472;45.494;12.142;2023-04-25T04:32:01;10.80;;;8.20;;
22610;SDS011;11472;45.494;12.142;2023-04-25T04:33:00;10.80;;;8.20;;
22610;SDS011;11472;45.494;12.142;2023-04-25T04:34:01;10.80;;;8.20;;
22610;SDS011;11472;45.494;12.142;2023-04-25T04:35:00;11.90;;;9.30;;
22610;SDS011;11472;45.494;12.142;2023-04-25T04:36:00;11.90;;;9.30;;
22610;SDS011;11472;45.494;12.142;2023-04-25T04:37:01;11.90;;;9.30;;
22610;SDS011;11472;45.494;12.142;2023-04-25T04:38:00;11.90;;;9.30;;
22610;SDS011;11472;45.494;12.142;2023-04-25T04:39:01;11.90;;;9.30;;
22610;SDS011;11472;45.494;12.142;2023-04-25T04:40:05;11.90;;;9.30;;
22610;SDS011;11472;45.494;12.142;2023-04-25T04:41:00;11.90;;;9.30;;
22610;SDS011;11472;45.494;12.142;2023-04-25T04:42:03;11.90;;;9.30;;
22610;SDS011;11472;45.494;12.142;2023-04-25T04:43:00;11.90;;;9.30;;
22610;SDS011;11472;45.494;12.142;2023-04-25T04:44:01;11.90;;;9.30;;
22610;SDS011;11472;45.494;12.142;2023-04-25T04:45:01;11.90;;;9.30;;
22610;SDS011;11472;45.494;12.142;2023-04-25T04:46:00;11.90;;;9.30;;
22610;SDS011;11472;45.494;12.142;2023-04-25T04:47:01;11.90;;;9.30;;
22610;SDS011;11472;45.494;12.142;2023-04-25T04:48:00;11.90;;;9.30;;
22610;SDS011;11472;45.494;12.142;2023-04-25T04:49:00;11.90;;;9.30;;
22610;SDS011;11472;45.494;12.142;2023-04-25T04:50:00;14.90;;;11.40;;
22610;SDS011;11472;45.494;12.142;2023-04-25T04:51:01;14.90;;;11.40;;
22610;SDS011;11472;45.494;12.142;2023-04-25T04:52:00;14.90;;;11.40;;
22610;SDS011;11472;45.494;12.142;2023-04-25T04:53:01;14.90;;;11.40;;
22610;SDS011;11472;45.494;12.142;2023-04-25T04:54:02;14.90;;;11.40;;
22610;SDS011;11472;45.494;12.142;2023-04-25T04:55:01;14.90;;;11.40;;
22610;SDS011;11472;45.494;12.142;2023-04-25T04:56:00;14.90;;;11.40;;
22610;SDS011;11472;45.494;12.142;2023-04-25T04:57:00;14.90;;;11.40;;
22610;SDS011;11472;45.494;12.142;2023-04-25T04:58:00;14.90;;;11.40;;
22610;SDS011;11472;45.494;12.142;2023-04-25T04:59:01;14.90;;;11.40;;
22610;SDS011;11472;45.494;12.142;2023-04-25T05:00:01;14.90;;;11.40;;
22610;SDS011;11472;45.494;12.142;2023-04-25T05:01:00;14.90;;;11.40;;
22610;SDS011;11472;45.494;12.142;2023-04-25T05:02:00;14.90;;;11.40;;
22610;SDS011;11472;45.494;12.142;2023-04-25T05:03:00;14.90;;;11.40;;
22610;SDS011;11472;45.494;12.142;2023-04-25T05:04:01;14.90;;;11.40;;
22610;SDS011;11472;45.494;12.142;2023-04-25T05:05:00;17.70;;;13.10;;
22610;SDS011;11472;45.494;12.142;2023-04-25T05:06:00;17.70;;;13.10;;
22610;SDS011;11472;45.494;12.142;2023-04-25T05:07:00;17.70;;;13.10;;
22610;SDS011;11472;45.494;12.142;2023-04-25T05:08:00;17.70;;;13.10;;
22610;SDS011;11472;45.494;12.142;2023-04-25T05:09:00;17.70;;;13.10;;
22610;SDS011;11472;45.494;12.142;2023-04-25T05:10:00;17.70;;;13.10;;
22610;SDS011;11472;45.494;12.142;2023-04-25T05:11:00;17.70;;;13.10;;
22610;SDS011;11472;45.494;12.142;2023-04-25T05:12:01;17.70;;;13.10;;
22610;SDS011;11472;45.494;12.142;2023-04-25T05:13:00;17.70;;;13.10;;
22610;SDS011;11472;45.494;12.142;2023-04-25T05:14:00;17.70;;;13.10;;
22610;SDS011;11472;45.494;12.142;2023-04-25T05:15:00;17.70;;;13.10;;
22610;SDS011;11472;45.494;12.142;2023-04-25T05:16:00;17.70;;;13.10;;
22610;SDS011;11472;45.494;12.142;2023-04-25T05:17:01;17.70;;;13.10;;
22610;SDS011;11472;45.494;12.142;2023-04-25T05:18:01;17.70;;;13.10;;
22610;SDS011;11472;45.494;12.142;2023-04-25T05:19:00;17.70;;;13.10;;
22610;SDS011;11472;45.494;12.142;2023-04-25T05:20:00;14.40;;;11.20;;
22610;SDS011;11472;45.494;12.142;2023-04-25T05:21:00;14.40;;;11.20;;
22610;SDS011;11472;45.494;12.142;2023-04-25T05:22:01;14.40;;;11.20;;
22610;SDS011;11472;45.494;12.142;2023-04-25T05:23:00;14.40;;;11.20;;
22610;SDS011;11472;45.494;12.142;2023-04-25T05:24:01;14.40;;;11.20;;
22610;SDS011;11472;45.494;12.142;2023-04-25T05:25:00;14.40;;;11.20;;
22610;SDS011;11472;45.494;12.142;2023-04-25T05:26:00;14.40;;;11.20;;
22610;SDS011;11472;45.494;12.142;2023-04-25T05:27:00;14.40;;;11.20;;
22610;SDS011;11472;45.494;12.142;2023-04-25T05:28:00;14.40;;;11.20;;
22610;SDS011;11472;45.494;12.142;2023-04-25T05:29:00;14.40;;;11.20;;
22610;SDS011;11472;45.494;12.142;2023-04-25T05:30:01;14.40;;;11.20;;
22610;SDS011;11472;45.494;12.142;2023-04-25T05:31:00;14.40;;;11.20;;
22610;SDS011;11472;45.494;12.142;2023-04-25T05:32:00;14.40;;;11.20;;
22610;SDS011;11472;45.494;12.142;2023-04-25T05:33:01;14.40;;;11.20;;
22610;SDS011;11472;45.494;12.142;2023-04-25T05:34:00;14.40;;;11.20;;
22610;SDS011;11472;45.494;12.142;2023-04-25T05:35:01;18.60;;;13.70;;
22610;SDS011;11472;45.494;12.142;2023-04-25T05:36:00;18.60;;;13.70;;
22610;SDS011;11472;45.494;12.142;2023-04-25T05:37:00;18.60;;;13.70;;
22610;SDS011;11472;45.494;12.142;2023-04-25T05:38:00;18.60;;;13.70;;
22610;SDS011;11472;45.494;12.142;2023-04-25T05:39:00;18.60;;;13.70;;
22610;SDS011;11472;45.494;12.142;2023-04-25T05:40:02;18.60;;;13.70;;
22610;SDS011;11472;45.494;12.142;2023-04-25T05:41:00;18.60;;;13.70;;
22610;SDS011;11472;45.494;12.142;2023-04-25T05:42:01;18.60;;;13.70;;
22610;SDS011;11472;45.494;12.142;2023-04-25T05:43:00;18.60;;;13.70;;
22610;SDS011;11472;45.494;12.142;2023-04-25T05:44:01;18.60;;;13.70;;
22610;SDS011;11472;45.494;12.142;2023-04-25T05:45:00;18.60;;;13.70;;
22610;SDS011;11472;45.494;12.142;2023-04-25T05:46:00;18.60;;;13.70;;
22610;SDS011;11472;45.494;12.142;2023-04-25T05:47:00;18.60;;;13.70;;
22610;SDS011;11472;45.494;12.142;2023-04-25T05:48:00;18.60;;;13.70;;
22610;SDS011;11472;45.494;12.142;2023-04-25T05:49:00;18.60;;;13.70;;
22610;SDS011;11472;45.494;12.142;2023-04-25T05:50:00;12.60;;;10.30;;
22610;SDS011;11472;45.494;12.142;2023-04-25T05:51:00;12.60;;;10.30;;
22610;SDS011;11472;45.494;12.142;2023-04-25T05:52:00;12.60;;;10.30;;
22610;SDS011;11472;45.494;12.142;2023-04-25T05:53:00;12.60;;;10.30;;